createdAt,value
2023-04-15T00:00:35.249Z,30.06
2023-04-15T00:01:35.262Z,30.82
2023-04-15T00:02:35.457Z,29.18
2023-04-15T00:03:35.519Z,30.11
2023-04-15T00:04:35.480Z,25.59
2023-04-15T00:05:35.509Z,27.46
2023-04-15T00:06:35.467Z,29.58
2023-04-15T00:07:35.528Z,30.20
2023-04-15T00:08:35.577Z,29.20
2023-04-15T00:09:35.616Z,29.10
2023-04-15T00:10:35.664Z,28.37
2023-04-15T00:11:35.716Z,28.57
2023-04-15T00:12:35.766Z,26.50
2023-04-15T00:13:35.820Z,28.65
2023-04-15T00:14:35.870Z,27.58
2023-04-15T00:15:35.911Z,26.58
2023-04-15T00:16:35.987Z,27.42
2023-04-15T00:17:36.049Z,25.00
2023-04-15T00:18:36.047Z,30.86
2023-04-15T00:19:36.095Z,29.03
2023-04-15T00:20:36.155Z,30.72
2023-04-15T00:21:36.183Z,31.38
2023-04-15T00:22:36.245Z,27.24
2023-04-15T00:23:36.286Z,32.42
2023-04-15T00:24:36.341Z,32.24
2023-04-15T00:25:36.388Z,30.04
2023-04-15T00:26:36.432Z,32.68
2023-04-15T00:27:36.539Z,28.80
2023-04-15T00:28:36.522Z,31.88
2023-04-15T00:29:36.574Z,28.92
2023-04-15T00:30:36.648Z,32.01
2023-04-15T00:31:36.662Z,33.14
2023-04-15T00:32:36.822Z,26.27
2023-04-15T00:33:36.788Z,29.27
2023-04-15T00:34:36.811Z,28.54
2023-04-15T00:35:36.853Z,29.33
2023-04-15T00:36:36.905Z,28.98
2023-04-15T00:37:37.702Z,27.73
2023-04-15T00:38:36.997Z,28.97
2023-04-15T00:39:37.055Z,28.85
2023-04-15T00:40:37.101Z,25.42
2023-04-15T00:41:37.147Z,27.21
2023-04-15T00:42:37.198Z,26.71
2023-04-15T00:43:37.251Z,25.74
2023-04-15T00:44:37.299Z,26.94
2023-04-15T00:45:37.408Z,25.65
2023-04-15T00:46:37.384Z,28.06
2023-04-15T00:47:37.449Z,28.45
2023-04-15T00:48:37.482Z,29.81
2023-04-15T00:49:37.652Z,29.10
2023-04-15T00:50:37.582Z,30.64
2023-04-15T00:51:37.682Z,30.85
2023-04-15T00:52:37.680Z,29.13
2023-04-15T00:53:37.726Z,31.60
2023-04-15T00:54:37.772Z,29.89
2023-04-15T00:55:37.814Z,30.39
2023-04-15T00:56:37.863Z,31.24
2023-04-15T00:57:37.914Z,30.61
2023-04-15T00:58:37.990Z,28.37
2023-04-15T00:59:38.092Z,29.47
2023-04-15T01:00:38.061Z,31.55
2023-04-15T01:01:38.109Z,29.72
2023-04-15T01:02:38.250Z,34.10
2023-04-15T01:03:38.461Z,30.80
2023-04-15T01:04:38.486Z,30.77
2023-04-15T01:05:38.316Z,33.98
2023-04-15T01:06:38.358Z,32.30
2023-04-15T01:07:38.409Z,32.45
2023-04-15T01:08:38.454Z,31.47
2023-04-15T01:09:39.207Z,29.56
2023-04-15T01:10:38.545Z,32.79
2023-04-15T01:11:38.604Z,30.44
2023-04-15T01:12:38.648Z,32.70
2023-04-15T01:13:38.693Z,28.85
2023-04-15T01:14:38.766Z,30.89
2023-04-15T01:15:38.862Z,28.94
2023-04-15T01:16:38.848Z,33.23
2023-04-15T01:17:38.910Z,31.11
2023-04-15T01:18:38.961Z,30.40
2023-04-15T01:19:39.090Z,30.42
2023-04-15T01:20:39.046Z,28.10
2023-04-15T01:21:39.726Z,28.33
2023-04-15T01:22:39.132Z,28.07
2023-04-15T01:23:39.173Z,28.10
2023-04-15T01:24:39.235Z,30.16
2023-04-15T01:25:39.277Z,26.56
2023-04-15T01:26:40.474Z,29.00
2023-04-15T01:27:39.375Z,30.02
2023-04-15T01:28:39.421Z,27.88
2023-04-15T01:29:39.478Z,28.59
2023-04-15T01:30:39.527Z,27.35
2023-04-15T01:31:39.613Z,26.07
2023-04-15T01:32:39.670Z,26.04
2023-04-15T01:33:39.662Z,28.72
2023-04-15T01:34:39.727Z,25.39
2023-04-15T01:35:39.760Z,29.22
2023-04-15T01:36:39.811Z,28.44
2023-04-15T01:37:39.857Z,27.82
2023-04-15T01:38:39.902Z,26.92
2023-04-15T01:39:39.962Z,26.05
2023-04-15T01:40:40.016Z,28.70
2023-04-15T01:41:40.064Z,29.57
2023-04-15T01:42:40.109Z,30.61
2023-04-15T01:43:40.157Z,29.21
2023-04-15T01:44:40.208Z,29.06
2023-04-15T01:45:41.222Z,29.47
2023-04-15T01:46:40.350Z,27.63
2023-04-15T01:47:40.393Z,25.53
2023-04-15T01:48:40.403Z,26.47
2023-04-15T01:49:40.454Z,26.81
2023-04-15T01:50:40.497Z,27.34
2023-04-15T01:51:40.560Z,28.77
2023-04-15T01:52:40.600Z,25.61
2023-04-15T01:53:40.647Z,27.29
2023-04-15T01:54:40.721Z,25.92
2023-04-15T01:55:40.746Z,30.37
2023-04-15T01:56:40.794Z,32.38
2023-04-15T01:57:41.737Z,28.05
2023-04-15T01:58:40.917Z,29.78
2023-04-15T01:59:40.942Z,26.48
2023-04-15T02:00:41.018Z,26.81
2023-04-15T02:01:41.106Z,28.62
2023-04-15T02:02:41.385Z,28.57
2023-04-15T02:03:41.235Z,26.87
2023-04-15T02:04:41.185Z,26.86
2023-04-15T02:05:41.232Z,25.38
2023-04-15T02:06:41.270Z,25.37
2023-04-15T02:07:41.325Z,26.12
2023-04-15T02:08:41.462Z,26.47
2023-04-15T02:09:41.444Z,26.81
2023-04-15T02:10:41.476Z,25.00
2023-04-15T02:11:41.518Z,30.81
2023-04-15T02:12:42.246Z,29.53
2023-04-15T02:13:41.614Z,29.68
2023-04-15T02:14:41.669Z,27.72
2023-04-15T02:15:41.771Z,27.35
2023-04-15T02:16:41.833Z,29.65
2023-04-15T02:17:42.002Z,29.48
2023-04-15T02:18:41.856Z,27.95
2023-04-15T02:19:41.901Z,29.37
2023-04-15T02:20:41.945Z,30.31
2023-04-15T02:21:42.004Z,30.59
2023-04-15T02:22:42.124Z,29.41
2023-04-15T02:23:42.104Z,28.70
2023-04-15T02:24:42.144Z,30.46
2023-04-15T02:25:42.182Z,28.91
2023-04-15T02:26:43.185Z,29.11
2023-04-15T02:27:42.166Z,29.26
2023-04-15T02:28:42.158Z,28.81
2023-04-15T02:29:42.156Z,30.08
2023-04-15T02:30:42.151Z,26.78
2023-04-15T02:31:42.224Z,29.14
2023-04-15T02:32:42.166Z,29.15
2023-04-15T02:33:42.122Z,27.04
2023-04-15T02:34:42.116Z,30.73
2023-04-15T02:35:42.144Z,29.19
2023-04-15T02:36:42.750Z,29.29
2023-04-15T02:37:42.188Z,27.23
2023-04-15T02:38:42.237Z,26.02
2023-04-15T02:39:42.284Z,29.30
2023-04-15T02:40:42.322Z,25.02
2023-04-15T02:41:42.367Z,28.56
2023-04-15T02:42:42.419Z,27.70
2023-04-15T02:43:42.473Z,27.53
2023-04-15T02:44:42.524Z,26.73
2023-04-15T02:45:42.633Z,28.87
2023-04-15T02:46:42.602Z,28.12
2023-04-15T02:47:42.705Z,29.33
2023-04-15T02:48:42.688Z,28.94
2023-04-15T02:49:42.745Z,31.04
2023-04-15T02:50:42.784Z,31.31
2023-04-15T02:51:42.842Z,28.10
2023-04-15T02:52:42.909Z,28.02
2023-04-15T02:53:42.936Z,27.87
2023-04-15T02:54:43.050Z,27.75
2023-04-15T02:55:43.121Z,27.33
2023-04-15T02:56:43.078Z,29.96
2023-04-15T02:57:43.142Z,28.66
2023-04-15T02:58:43.165Z,27.58
2023-04-15T02:59:43.217Z,28.03
2023-04-15T03:00:43.269Z,28.21
2023-04-15T03:01:43.362Z,26.74
2023-04-15T03:02:43.689Z,28.80
2023-04-15T03:03:43.499Z,28.43
2023-04-15T03:04:43.483Z,29.87
2023-04-15T03:05:43.511Z,25.00
2023-04-15T03:06:43.645Z,29.84
2023-04-15T03:07:43.618Z,33.24
2023-04-15T03:08:43.674Z,36.47
2023-04-15T03:09:43.764Z,36.03
2023-04-15T03:10:43.763Z,33.41
2023-04-15T03:11:43.805Z,37.81
2023-04-15T03:12:43.856Z,36.27
2023-04-15T03:13:43.908Z,35.17
2023-04-15T03:14:43.952Z,34.69
2023-04-15T03:15:44.048Z,39.06
2023-04-15T03:16:44.054Z,34.34
2023-04-15T03:17:44.152Z,31.92
2023-04-15T03:18:44.153Z,29.78
2023-04-15T03:19:44.208Z,32.32
2023-04-15T03:20:44.311Z,38.77
2023-04-15T03:21:44.321Z,37.19
2023-04-15T03:22:44.347Z,35.57
2023-04-15T03:23:44.437Z,35.82
2023-04-15T03:24:44.447Z,35.78
2023-04-15T03:25:44.496Z,32.87
2023-04-15T03:26:44.556Z,31.47
2023-04-15T03:27:44.598Z,34.98
2023-04-15T03:28:44.651Z,31.26
2023-04-15T03:29:44.699Z,34.76
2023-04-15T03:30:44.759Z,29.26
2023-04-15T03:31:44.796Z,26.52
2023-04-15T03:32:44.881Z,30.79
2023-04-15T03:33:44.894Z,27.98
2023-04-15T03:34:44.946Z,30.59
2023-04-15T03:35:44.983Z,29.73
2023-04-15T03:36:45.041Z,34.58
2023-04-15T03:37:45.093Z,32.57
2023-04-15T03:38:45.135Z,30.59
2023-04-15T03:39:45.175Z,29.54
2023-04-15T03:40:45.237Z,27.93
2023-04-15T03:41:45.343Z,26.56
2023-04-15T03:42:45.342Z,27.61
2023-04-15T03:43:45.385Z,26.79
2023-04-15T03:44:45.437Z,28.74
2023-04-15T03:45:45.482Z,29.49
2023-04-15T03:46:45.585Z,29.15
2023-04-15T03:47:45.625Z,26.78
2023-04-15T03:48:45.634Z,27.05
2023-04-15T03:49:45.689Z,32.62
2023-04-15T03:50:45.720Z,30.79
2023-04-15T03:51:45.776Z,28.72
2023-04-15T03:52:45.827Z,30.33
2023-04-15T03:53:45.879Z,29.74
2023-04-15T03:54:45.930Z,32.42
2023-04-15T03:55:45.967Z,33.50
2023-04-15T03:56:46.024Z,31.34
2023-04-15T03:57:46.073Z,28.62
2023-04-15T03:58:46.114Z,27.71
2023-04-15T03:59:46.177Z,26.86
2023-04-15T04:00:46.212Z,27.41
2023-04-15T04:01:46.325Z,29.34
2023-04-15T04:02:46.444Z,26.61
2023-04-15T04:03:46.449Z,25.00
2023-04-15T04:04:46.506Z,28.95
2023-04-15T04:05:46.483Z,26.01
2023-04-15T04:06:46.589Z,26.28
2023-04-15T04:07:46.592Z,30.57
2023-04-15T04:08:46.647Z,31.99
2023-04-15T04:09:47.443Z,28.60
2023-04-15T04:10:46.756Z,28.89
2023-04-15T04:11:46.807Z,30.51
2023-04-15T04:12:46.857Z,29.30
2023-04-15T04:13:46.908Z,30.17
2023-04-15T04:14:46.944Z,34.20
2023-04-15T04:15:47.332Z,34.13
2023-04-15T04:16:47.122Z,32.03
2023-04-15T04:17:47.155Z,35.79
2023-04-15T04:18:47.235Z,35.25
2023-04-15T04:19:47.189Z,35.60
2023-04-15T04:20:47.243Z,35.95
2023-04-15T04:21:47.284Z,35.60
2023-04-15T04:22:47.336Z,41.32
2023-04-15T04:23:47.389Z,38.77
2023-04-15T04:24:47.441Z,37.98
2023-04-15T04:25:47.489Z,40.80
2023-04-15T04:26:47.526Z,42.46
2023-04-15T04:27:47.582Z,37.09
2023-04-15T04:28:47.690Z,32.91
2023-04-15T04:29:47.686Z,32.15
2023-04-15T04:30:47.731Z,30.34
2023-04-15T04:31:47.790Z,32.43
2023-04-15T04:32:47.918Z,32.70
2023-04-15T04:33:47.875Z,31.88
2023-04-15T04:34:47.932Z,32.20
2023-04-15T04:35:47.975Z,36.83
2023-04-15T04:36:48.798Z,33.80
2023-04-15T04:37:48.073Z,33.42
2023-04-15T04:38:48.118Z,36.95
2023-04-15T04:39:48.164Z,40.45
2023-04-15T04:40:48.218Z,34.05
2023-04-15T04:41:48.270Z,35.48
2023-04-15T04:42:48.315Z,37.20
2023-04-15T04:43:48.367Z,38.08
2023-04-15T04:44:48.411Z,36.99
2023-04-15T04:45:48.496Z,37.73
2023-04-15T04:46:48.503Z,38.07
2023-04-15T04:47:48.568Z,37.59
2023-04-15T04:48:48.594Z,38.98
2023-04-15T04:49:48.659Z,35.74
2023-04-15T04:50:48.705Z,33.00
2023-04-15T04:51:48.756Z,30.58
2023-04-15T04:52:48.793Z,28.35
2023-04-15T04:53:48.844Z,31.48
2023-04-15T04:54:48.908Z,32.28
2023-04-15T04:55:48.945Z,35.68
2023-04-15T04:56:49.002Z,36.29
2023-04-15T04:57:49.108Z,35.54
2023-04-15T04:58:49.093Z,35.61
2023-04-15T04:59:49.144Z,36.67
2023-04-15T05:00:49.214Z,36.35
2023-04-15T05:01:49.284Z,35.06
2023-04-15T05:02:49.479Z,36.88
2023-04-15T05:03:49.391Z,35.76
2023-04-15T05:04:49.386Z,36.29
2023-04-15T05:05:49.433Z,39.67
2023-04-15T05:06:49.482Z,39.05
2023-04-15T05:07:49.524Z,33.71
2023-04-15T05:08:49.590Z,33.63
2023-04-15T05:09:49.621Z,30.10
2023-04-15T05:10:49.670Z,30.00
2023-04-15T05:11:49.729Z,27.68
2023-04-15T05:12:49.765Z,29.06
2023-04-15T05:13:50.806Z,29.05
2023-04-15T05:14:49.863Z,29.05
2023-04-15T05:15:49.932Z,31.00
2023-04-15T05:16:49.955Z,28.65
2023-04-15T05:17:50.137Z,27.06
2023-04-15T05:18:50.057Z,25.86
2023-04-15T05:19:50.107Z,27.68
2023-04-15T05:20:50.166Z,29.13
2023-04-15T05:21:50.202Z,30.53
2023-04-15T05:22:50.250Z,27.62
2023-04-15T05:23:50.822Z,31.13
2023-04-15T05:24:50.351Z,35.30
2023-04-15T05:25:50.385Z,32.94
2023-04-15T05:26:50.440Z,31.84
2023-04-15T05:27:50.509Z,34.66
2023-04-15T05:28:50.606Z,29.29
2023-04-15T05:29:50.585Z,28.06
2023-04-15T05:30:50.669Z,30.62
2023-04-15T05:31:50.673Z,31.06
2023-04-15T05:32:50.739Z,29.10
2023-04-15T05:33:50.767Z,30.05
2023-04-15T05:34:50.894Z,26.62
2023-04-15T05:35:50.875Z,28.68
2023-04-15T05:36:50.916Z,31.08
2023-04-15T05:37:50.980Z,32.29
2023-04-15T05:38:51.825Z,31.03
2023-04-15T05:39:51.051Z,30.20
2023-04-15T05:40:51.099Z,30.77
2023-04-15T05:41:51.163Z,27.62
2023-04-15T05:42:51.188Z,29.97
2023-04-15T05:43:51.257Z,28.05
2023-04-15T05:44:51.285Z,29.83
2023-04-15T05:45:51.387Z,30.92
2023-04-15T05:46:51.388Z,31.95
2023-04-15T05:47:51.459Z,31.92
2023-04-15T05:48:53.767Z,29.49
2023-04-15T05:49:51.467Z,36.70
2023-04-15T05:50:51.462Z,35.71
2023-04-15T05:51:51.469Z,37.91
2023-04-15T05:52:51.442Z,35.03
2023-04-15T05:53:51.437Z,33.10
2023-04-15T05:54:51.436Z,32.99
2023-04-15T05:55:51.423Z,31.99
2023-04-15T05:56:51.427Z,31.53
2023-04-15T05:57:51.412Z,31.23
2023-04-15T05:58:53.694Z,33.20
2023-04-15T05:59:51.400Z,33.38
2023-04-15T06:00:51.408Z,33.47
2023-04-15T06:01:51.467Z,33.30
2023-04-15T06:02:51.494Z,33.26
2023-04-15T06:03:51.598Z,35.77
2023-04-15T06:04:51.520Z,33.23
2023-04-15T06:05:51.538Z,28.52
2023-04-15T06:06:51.555Z,27.05
2023-04-15T06:07:51.593Z,26.08
2023-04-15T06:08:51.620Z,25.37
2023-04-15T06:09:51.659Z,28.00
2023-04-15T06:10:51.689Z,26.25
2023-04-15T06:11:51.732Z,29.34
2023-04-15T06:12:51.765Z,28.21
2023-04-15T06:13:51.798Z,25.00
2023-04-15T06:14:51.843Z,28.82
2023-04-15T06:15:51.898Z,29.12
2023-04-15T06:16:51.919Z,29.67
2023-04-15T06:17:52.041Z,29.36
2023-04-15T06:18:51.980Z,28.74
2023-04-15T06:19:52.008Z,32.65
2023-04-15T06:20:52.037Z,33.48
2023-04-15T06:21:52.068Z,29.82
2023-04-15T06:22:52.091Z,34.06
2023-04-15T06:23:52.114Z,35.43
2023-04-15T06:24:52.152Z,33.64
2023-04-15T06:25:52.156Z,33.38
2023-04-15T06:26:52.175Z,36.20
2023-04-15T06:27:52.202Z,34.24
2023-04-15T06:28:52.222Z,35.59
2023-04-15T06:29:52.249Z,33.84
2023-04-15T06:30:52.264Z,36.31
2023-04-15T06:31:52.371Z,36.54
2023-04-15T06:32:52.327Z,36.36
2023-04-15T06:33:52.342Z,37.32
2023-04-15T06:34:52.369Z,35.39
2023-04-15T06:35:52.393Z,39.37
2023-04-15T06:36:52.424Z,38.66
2023-04-15T06:37:52.430Z,36.23
2023-04-15T06:38:52.526Z,36.09
2023-04-15T06:39:52.474Z,35.37
2023-04-15T06:40:52.489Z,37.37
2023-04-15T06:41:52.494Z,38.40
2023-04-15T06:42:52.516Z,35.43
2023-04-15T06:43:52.520Z,37.87
2023-04-15T06:44:52.523Z,37.87
2023-04-15T06:45:52.559Z,38.36
2023-04-15T06:46:52.544Z,38.75
2023-04-15T06:47:52.577Z,39.91
2023-04-15T06:48:52.534Z,39.80
2023-04-15T06:49:52.530Z,40.43
2023-04-15T06:50:52.524Z,40.25
2023-04-15T06:51:52.538Z,41.77
2023-04-15T06:52:52.530Z,42.99
2023-04-15T06:53:52.553Z,42.74
2023-04-15T06:54:52.627Z,41.55
2023-04-15T06:55:52.574Z,43.72
2023-04-15T06:56:52.593Z,42.78
2023-04-15T06:57:52.618Z,43.66
2023-04-15T06:58:52.638Z,44.42
2023-04-15T06:59:52.855Z,44.68
2023-04-15T07:00:52.736Z,42.96
2023-04-15T07:01:52.784Z,43.83
2023-04-15T07:02:52.879Z,42.67
2023-04-15T07:03:52.898Z,41.04
2023-04-15T07:04:52.904Z,40.56
2023-04-15T07:05:52.942Z,42.17
2023-04-15T07:06:53.011Z,40.47
2023-04-15T07:07:53.068Z,41.87
2023-04-15T07:08:53.116Z,39.87
2023-04-15T07:09:53.169Z,41.39
2023-04-15T07:10:53.209Z,43.47
2023-04-15T07:11:53.268Z,45.23
2023-04-15T07:12:53.309Z,44.75
2023-04-15T07:13:53.347Z,43.19
2023-04-15T07:14:53.400Z,44.38
2023-04-15T07:15:53.431Z,46.07
2023-04-15T07:16:53.523Z,46.73
2023-04-15T07:17:53.529Z,42.00
2023-04-15T07:18:53.620Z,46.29
2023-04-15T07:19:53.556Z,47.36
2023-04-15T07:20:53.588Z,46.18
2023-04-15T07:21:53.623Z,43.16
2023-04-15T07:22:53.618Z,46.79
2023-04-15T07:23:53.636Z,46.97
2023-04-15T07:24:53.651Z,44.40
2023-04-15T07:25:53.667Z,46.83
2023-04-15T07:26:53.700Z,46.03
2023-04-15T07:27:53.703Z,46.98
2023-04-15T07:28:53.731Z,46.57
2023-04-15T07:29:53.755Z,45.43
2023-04-15T07:30:53.799Z,47.85
2023-04-15T07:31:53.801Z,44.38
2023-04-15T07:32:53.807Z,43.37
2023-04-15T07:33:53.825Z,50.15
2023-04-15T07:34:53.841Z,46.21
2023-04-15T07:35:53.848Z,43.31
2023-04-15T07:36:53.865Z,45.89
2023-04-15T07:37:53.868Z,45.56
2023-04-15T07:38:53.881Z,45.22
2023-04-15T07:39:53.893Z,50.10
2023-04-15T07:40:53.962Z,47.29
2023-04-15T07:41:53.938Z,44.84
2023-04-15T07:42:53.937Z,44.18
2023-04-15T07:43:53.945Z,47.94
2023-04-15T07:44:53.949Z,45.69
2023-04-15T07:45:54.064Z,48.22
2023-04-15T07:46:53.978Z,44.69
2023-04-15T07:47:54.022Z,46.74
2023-04-15T07:48:53.983Z,44.34
2023-04-15T07:49:53.997Z,44.79
2023-04-15T07:50:53.994Z,43.12
2023-04-15T07:51:54.004Z,50.80
2023-04-15T07:52:54.046Z,45.96
2023-04-15T07:53:54.018Z,44.61
2023-04-15T07:54:54.031Z,46.79
2023-04-15T07:55:54.098Z,45.92
2023-04-15T07:56:54.046Z,46.22
2023-04-15T07:57:54.066Z,46.64
2023-04-15T07:58:54.079Z,44.05
2023-04-15T07:59:54.087Z,44.99
2023-04-15T08:00:54.089Z,47.66
2023-04-15T08:01:54.139Z,43.09
2023-04-15T08:02:54.290Z,43.87
2023-04-15T08:03:54.299Z,44.50
2023-04-15T08:04:54.248Z,43.62
2023-04-15T08:05:54.195Z,46.83
2023-04-15T08:06:54.251Z,44.03
2023-04-15T08:07:54.238Z,46.41
2023-04-15T08:08:54.245Z,43.98
2023-04-15T08:09:54.266Z,42.27
2023-04-15T08:10:54.271Z,42.40
2023-04-15T08:11:54.403Z,42.98
2023-04-15T08:12:54.318Z,41.64
2023-04-15T08:13:54.312Z,44.72
2023-04-15T08:14:54.401Z,45.86
2023-04-15T08:15:54.353Z,45.32
2023-04-15T08:16:54.347Z,40.23
2023-04-15T08:17:54.377Z,42.99
2023-04-15T08:18:54.362Z,43.71
2023-04-15T08:19:54.373Z,45.35
2023-04-15T08:20:54.380Z,42.73
2023-04-15T08:21:54.387Z,43.63
2023-04-15T08:22:54.412Z,44.93
2023-04-15T08:23:54.398Z,44.10
2023-04-15T08:24:54.411Z,44.37
2023-04-15T08:25:54.427Z,45.05
2023-04-15T08:26:54.415Z,40.13
2023-04-15T08:27:54.425Z,39.94
2023-04-15T08:28:54.428Z,40.38
2023-04-15T08:29:54.423Z,39.40
2023-04-15T08:30:54.432Z,42.19
2023-04-15T08:31:54.451Z,43.39
2023-04-15T08:32:54.529Z,42.46
2023-04-15T08:33:54.483Z,40.91
2023-04-15T08:34:54.490Z,38.52
2023-04-15T08:35:54.496Z,39.31
2023-04-15T08:36:54.515Z,39.00
2023-04-15T08:37:54.544Z,35.68
2023-04-15T08:38:54.532Z,37.60
2023-04-15T08:39:54.567Z,33.83
2023-04-15T08:40:54.581Z,33.17
2023-04-15T08:41:54.587Z,36.34
2023-04-15T08:42:54.621Z,36.17
2023-04-15T08:43:54.680Z,34.37
2023-04-15T08:44:54.604Z,31.09
2023-04-15T08:45:54.600Z,35.42
2023-04-15T08:46:54.666Z,35.51
2023-04-15T08:47:54.636Z,34.35
2023-04-15T08:48:54.600Z,34.79
2023-04-15T08:49:54.623Z,33.44
2023-04-15T08:50:54.649Z,28.75
2023-04-15T08:51:54.685Z,28.82
2023-04-15T08:52:54.737Z,30.09
2023-04-15T08:53:54.794Z,28.98
2023-04-15T08:54:54.857Z,31.27
2023-04-15T08:55:54.918Z,26.28
2023-04-15T08:56:55.062Z,29.33
2023-04-15T08:57:55.009Z,34.74
2023-04-15T08:58:55.194Z,31.46
2023-04-15T08:59:55.136Z,37.11
2023-04-15T09:00:55.234Z,39.35
2023-04-15T09:01:55.261Z,39.89
2023-04-15T09:02:55.288Z,32.21
2023-04-15T09:03:55.507Z,27.76
2023-04-15T09:04:55.330Z,29.60
2023-04-15T09:05:55.379Z,25.00
2023-04-15T09:06:55.431Z,32.59
2023-04-15T09:07:55.509Z,28.63
2023-04-15T09:08:55.598Z,28.37
2023-04-15T09:09:55.599Z,29.13
2023-04-15T09:10:55.648Z,34.16
2023-04-15T09:11:55.687Z,36.79
2023-04-15T09:12:55.739Z,32.23
2023-04-15T09:13:55.780Z,26.01
2023-04-15T09:14:55.819Z,26.97
2023-04-15T09:15:55.873Z,25.00
2023-04-15T09:16:55.963Z,29.94
2023-04-15T09:17:55.981Z,27.60
2023-04-15T09:18:56.017Z,32.42
2023-04-15T09:19:56.064Z,29.05
2023-04-15T09:20:56.110Z,27.25
2023-04-15T09:21:58.651Z,26.77
2023-04-15T09:22:56.147Z,28.88
2023-04-15T09:23:56.132Z,28.50
2023-04-15T09:24:56.129Z,25.00
2023-04-15T09:25:56.126Z,26.22
2023-04-15T09:26:56.112Z,28.16
2023-04-15T09:27:56.116Z,26.65
2023-04-15T09:28:56.105Z,25.94
2023-04-15T09:29:56.091Z,25.72
2023-04-15T09:30:56.111Z,27.37
2023-04-15T09:31:56.084Z,30.13
2023-04-15T09:32:56.107Z,35.46
2023-04-15T09:33:56.069Z,48.07
2023-04-15T09:34:56.068Z,43.27
2023-04-15T09:35:56.054Z,41.65
2023-04-15T09:36:56.058Z,31.85
2023-04-15T09:37:56.044Z,31.74
2023-04-15T09:38:56.044Z,36.56
2023-04-15T09:39:56.043Z,37.23
2023-04-15T09:40:56.058Z,36.48
2023-04-15T09:41:56.032Z,42.26
2023-04-15T09:42:56.013Z,52.88
2023-04-15T09:43:55.997Z,51.50
2023-04-15T09:44:56.004Z,55.84
2023-04-15T09:45:56.014Z,60.45
2023-04-15T09:46:55.999Z,58.20
2023-04-15T09:47:57.106Z,61.31
2023-04-15T09:48:56.001Z,65.93
2023-04-15T09:49:56.063Z,65.31
2023-04-15T09:50:56.033Z,71.10
2023-04-15T09:52:05.000Z,71.76
2023-04-15T09:52:57.039Z,71.89
2023-04-15T09:53:56.041Z,72.01
2023-04-15T09:54:56.043Z,72.43
2023-04-15T09:55:56.036Z,70.61
2023-04-15T09:56:56.037Z,74.49
2023-04-15T09:57:56.022Z,78.51
2023-04-15T09:58:56.014Z,77.15
2023-04-15T09:59:56.096Z,75.85
2023-04-15T10:00:56.000Z,80.27
2023-04-15T10:01:56.068Z,81.37
2023-04-15T10:02:56.399Z,81.32
2023-04-15T10:03:56.103Z,80.79
2023-04-15T10:04:55.970Z,81.33
2023-04-15T10:05:55.966Z,86.30
2023-04-15T10:06:55.964Z,87.60
2023-04-15T10:07:55.948Z,84.71
2023-04-15T10:08:55.940Z,82.58
2023-04-15T10:09:55.946Z,84.26
2023-04-15T10:10:55.924Z,83.85
2023-04-15T10:11:55.931Z,81.87
2023-04-15T10:12:55.956Z,80.40
2023-04-15T10:13:55.995Z,81.27
2023-04-15T10:14:56.037Z,79.49
2023-04-15T10:15:56.135Z,79.98
2023-04-15T10:16:56.123Z,78.97
2023-04-15T10:17:56.230Z,80.11
2023-04-15T10:18:56.206Z,75.71
2023-04-15T10:19:56.224Z,76.03
2023-04-15T10:20:56.268Z,72.66
2023-04-15T10:21:56.304Z,73.83
2023-04-15T10:22:56.935Z,69.59
2023-04-15T10:23:56.391Z,70.74
2023-04-15T10:24:56.427Z,72.15
2023-04-15T10:25:56.453Z,73.08
2023-04-15T10:26:56.491Z,73.63
2023-04-15T10:27:56.526Z,70.91
2023-04-15T10:28:57.258Z,67.37
2023-04-15T10:29:56.600Z,65.06
2023-04-15T10:30:56.646Z,64.82
2023-04-15T10:31:56.674Z,55.94
2023-04-15T10:32:56.765Z,51.41
2023-04-15T10:33:56.740Z,56.60
2023-04-15T10:34:56.779Z,59.18
2023-04-15T10:35:56.820Z,59.76
2023-04-15T10:36:56.860Z,60.92
2023-04-15T10:37:56.902Z,61.24
2023-04-15T10:38:56.935Z,62.45
2023-04-15T10:39:56.983Z,57.90
2023-04-15T10:40:57.018Z,50.03
2023-04-15T10:41:57.044Z,40.57
2023-04-15T10:42:57.083Z,44.66
2023-04-15T10:43:57.123Z,41.37
2023-04-15T10:44:57.254Z,47.86
2023-04-15T10:45:57.204Z,46.15
2023-04-15T10:46:57.275Z,36.79
2023-04-15T10:47:57.463Z,34.55
2023-04-15T10:48:57.332Z,35.67
2023-04-15T10:49:57.365Z,37.74
2023-04-15T10:50:57.506Z,42.85
2023-04-15T10:51:57.454Z,42.08
2023-04-15T10:52:57.502Z,36.09
2023-04-15T10:53:57.543Z,28.44
2023-04-15T10:54:57.577Z,29.73
2023-04-15T10:55:57.615Z,29.27
2023-04-15T10:56:57.650Z,32.17
2023-04-15T10:57:57.690Z,43.37
2023-04-15T10:58:57.740Z,36.86
2023-04-15T10:59:57.783Z,37.19
2023-04-15T11:00:57.826Z,35.07
2023-04-15T11:01:57.926Z,38.81
2023-04-15T11:02:58.185Z,42.39
2023-04-15T11:03:59.082Z,45.09
2023-04-15T11:04:58.018Z,46.32
2023-04-15T11:05:58.088Z,44.08
2023-04-15T11:06:58.124Z,41.99
2023-04-15T11:07:58.178Z,45.85
2023-04-15T11:08:58.246Z,54.67
2023-04-15T11:09:58.279Z,59.82
2023-04-15T11:10:58.335Z,57.99
2023-04-15T11:11:58.368Z,56.55
2023-04-15T11:12:58.434Z,58.51
2023-04-15T11:13:58.477Z,61.00
2023-04-15T11:14:58.560Z,54.93
2023-04-15T11:15:58.637Z,56.56
2023-04-15T11:16:58.636Z,55.93
2023-04-15T11:17:58.788Z,58.45
2023-04-15T11:18:58.753Z,60.41
2023-04-15T11:19:58.812Z,57.77
2023-04-15T11:20:58.854Z,56.77
2023-04-15T11:21:58.912Z,59.00
2023-04-15T11:23:13.419Z,62.67
2023-04-15T11:24:01.593Z,62.85
2023-04-15T11:24:58.970Z,63.35
2023-04-15T11:25:58.946Z,64.83
2023-04-15T11:26:58.952Z,62.74
2023-04-15T11:27:59.453Z,54.97
2023-04-15T11:28:58.924Z,47.25
2023-04-15T11:29:58.925Z,50.36
2023-04-15T11:30:58.917Z,51.62
2023-04-15T11:31:58.952Z,52.91
2023-04-15T11:32:58.945Z,48.91
2023-04-15T11:33:58.913Z,47.30
2023-04-15T11:34:58.892Z,45.34
2023-04-15T11:35:58.878Z,42.31
2023-04-15T11:36:58.874Z,37.59
2023-04-15T11:37:58.868Z,43.04
2023-04-15T11:38:59.468Z,34.80
2023-04-15T11:39:58.857Z,33.94
2023-04-15T11:40:58.863Z,30.00
2023-04-15T11:41:58.840Z,33.27
2023-04-15T11:42:58.835Z,40.46
2023-04-15T11:43:58.824Z,44.70
2023-04-15T11:44:58.829Z,47.55
2023-04-15T11:45:58.878Z,41.76
2023-04-15T11:46:58.810Z,48.34
2023-04-15T11:47:58.855Z,51.11
2023-04-15T11:48:58.792Z,54.25
2023-04-15T11:49:58.794Z,61.43
2023-04-15T11:50:58.805Z,58.49
2023-04-15T11:51:58.778Z,56.77
2023-04-15T11:52:58.774Z,54.64
2023-04-15T11:53:58.766Z,60.38
2023-04-15T11:54:58.759Z,61.62
2023-04-15T11:55:58.780Z,63.00
2023-04-15T11:56:58.761Z,65.99
2023-04-15T11:57:58.751Z,62.90
2023-04-15T11:58:58.749Z,66.05
2023-04-15T11:59:58.864Z,67.10
2023-04-15T12:00:58.738Z,69.48
2023-04-15T12:01:58.829Z,66.06
2023-04-15T12:02:58.823Z,60.63
2023-04-15T12:03:58.856Z,55.52
2023-04-15T12:04:58.757Z,58.06
2023-04-15T12:05:58.704Z,54.25
2023-04-15T12:06:58.692Z,49.75
2023-04-15T12:07:58.701Z,45.96
2023-04-15T12:08:58.676Z,44.86
2023-04-15T12:09:58.669Z,45.08
2023-04-15T12:10:58.743Z,41.72
2023-04-15T12:11:58.777Z,45.46
2023-04-15T12:12:58.648Z,47.77
2023-04-15T12:13:58.644Z,52.88
2023-04-15T12:14:58.638Z,57.53
2023-04-15T12:15:58.724Z,56.92
2023-04-15T12:16:58.742Z,60.81
2023-04-15T12:17:58.654Z,53.10
2023-04-15T12:18:58.611Z,48.38
2023-04-15T12:19:58.609Z,41.76
2023-04-15T12:20:58.607Z,43.78
2023-04-15T12:22:00.392Z,45.67
2023-04-15T12:22:58.595Z,45.44
2023-04-15T12:23:58.578Z,46.25
2023-04-15T12:24:58.575Z,49.62
2023-04-15T12:25:58.565Z,47.78
2023-04-15T12:26:58.560Z,50.90
2023-04-15T12:27:58.548Z,50.27
2023-04-15T12:28:58.543Z,53.56
2023-04-15T12:29:58.545Z,50.53
2023-04-15T12:30:58.572Z,50.05
2023-04-15T12:31:58.523Z,48.88
2023-04-15T12:32:58.596Z,59.10
2023-04-15T12:33:58.535Z,57.25
2023-04-15T12:34:58.549Z,56.66
2023-04-15T12:35:58.569Z,50.81
2023-04-15T12:36:58.578Z,47.47
2023-04-15T12:37:58.593Z,46.39
2023-04-15T12:38:58.593Z,49.44
2023-04-15T12:39:58.599Z,46.65
2023-04-15T12:40:58.647Z,45.96
2023-04-15T12:41:58.664Z,46.68
2023-04-15T12:42:58.690Z,45.32
2023-04-15T12:43:58.686Z,39.66
2023-04-15T12:44:58.704Z,37.54
2023-04-15T12:45:58.703Z,40.86
2023-04-15T12:46:58.801Z,43.25
2023-04-15T12:47:58.728Z,38.67
2023-04-15T12:48:58.799Z,34.57
2023-04-15T12:49:58.751Z,37.95
2023-04-15T12:50:58.770Z,39.79
2023-04-15T12:51:58.782Z,38.78
2023-04-15T12:52:58.796Z,41.82